createdAt,value
2023-03-20T06:32:49.242Z,4.10
2023-03-20T06:35:18.565Z,3.83
2023-03-20T06:37:46.498Z,3.20
2023-03-20T06:40:14.156Z,3.20
2023-03-20T06:42:41.668Z,3.13
2023-03-20T06:45:09.587Z,2.85
2023-03-20T06:47:37.184Z,3.60
2023-03-20T06:50:04.724Z,3.92
2023-03-20T06:52:32.652Z,3.58
2023-03-20T06:55:00.223Z,3.22
2023-03-20T06:57:27.802Z,3.65
2023-03-20T06:59:55.931Z,4.13
2023-03-20T07:02:23.187Z,3.17
2023-03-20T07:04:56.408Z,2.38
2023-03-20T07:07:30.800Z,3.35
2023-03-20T07:10:08.951Z,3.13
2023-03-20T07:12:41.281Z,2.63
2023-03-20T07:15:15.857Z,2.70
2023-03-20T07:17:53.674Z,3.85
2023-03-20T07:20:30.310Z,2.78
2023-03-20T07:23:05.094Z,2.38
2023-03-20T07:25:43.239Z,2.40
2023-03-20T07:28:19.487Z,2.85
2023-03-20T07:30:52.260Z,3.00
2023-03-20T07:33:24.463Z,3.08
2023-03-20T07:36:10.808Z,2.95
2023-03-20T07:38:43.329Z,2.70
2023-03-20T07:41:16.669Z,3.17
2023-03-20T07:44:02.931Z,3.38
2023-03-20T07:46:47.909Z,3.65
2023-03-20T07:49:27.206Z,2.85
2023-03-20T07:51:58.950Z,3.30
2023-03-20T07:54:30.762Z,3.97
2023-03-20T07:57:00.714Z,3.38
2023-03-20T07:59:28.273Z,3.90
2023-03-20T08:01:55.946Z,4.22
2023-03-20T08:04:23.554Z,3.53
2023-03-20T08:06:51.322Z,3.88
2023-03-20T08:09:19.361Z,4.35
2023-03-20T08:11:48.992Z,4.70
2023-03-20T08:14:17.010Z,3.70
2023-03-20T08:16:44.528Z,3.58
2023-03-20T08:19:11.796Z,2.45
2023-03-20T08:21:39.114Z,2.97
2023-03-20T08:24:06.795Z,2.67
2023-03-20T08:26:34.092Z,2.13
2023-03-20T08:29:01.398Z,2.35
2023-03-20T08:31:28.657Z,1.80
2023-03-20T08:33:58.519Z,1.75
2023-03-20T08:36:25.837Z,3.25
2023-03-20T08:38:53.181Z,2.50
2023-03-20T08:41:20.663Z,1.98
2023-03-20T08:43:48.104Z,2.47
2023-03-20T08:46:16.168Z,3.60
2023-03-20T08:48:44.011Z,3.58
2023-03-20T08:51:12.354Z,2.70
2023-03-20T08:53:40.830Z,2.95
2023-03-20T08:56:10.004Z,3.65
2023-03-20T08:58:40.863Z,2.25
2023-03-20T09:01:14.106Z,2.60
2023-03-20T09:03:42.979Z,1.90
2023-03-20T09:06:11.927Z,2.42
2023-03-20T09:08:40.625Z,2.10
2023-03-20T09:11:22.207Z,1.90
2023-03-20T09:13:50.761Z,1.75
2023-03-20T09:16:21.265Z,1.83
2023-03-20T09:18:52.753Z,2.40
2023-03-20T09:21:20.606Z,1.83
2023-03-20T09:23:50.911Z,1.95
2023-03-20T09:26:22.653Z,2.67
2023-03-20T09:28:52.385Z,2.00
2023-03-20T09:31:20.463Z,2.28
2023-03-20T09:33:48.686Z,2.08
2023-03-20T09:36:17.005Z,2.30
2023-03-20T09:38:45.655Z,2.22
2023-03-20T09:41:49.172Z,2.35
2023-03-20T09:45:05.529Z,1.88
2023-03-20T09:48:16.648Z,2.42
2023-03-20T09:50:55.445Z,2.92
2023-03-20T09:53:24.105Z,2.05
2023-03-20T09:55:54.373Z,2.28
2023-03-20T09:58:28.320Z,2.90
2023-03-20T10:00:59.981Z,3.03
2023-03-20T10:03:33.190Z,2.90
2023-03-20T10:06:04.815Z,2.72
2023-03-20T10:08:38.109Z,2.83
2023-03-20T10:11:32.618Z,2.63
2023-03-20T10:14:24.595Z,3.13
2023-03-20T10:17:01.368Z,2.63
2023-03-20T10:19:36.842Z,2.95
2023-03-20T10:22:16.413Z,3.22
2023-03-20T10:25:07.388Z,2.38
2023-03-20T10:27:46.253Z,3.92
2023-03-20T10:30:52.647Z,3.40
2023-03-20T10:33:38.436Z,1.98
2023-03-20T10:36:20.299Z,1.75
2023-03-20T10:39:09.430Z,1.90
2023-03-20T10:41:55.192Z,1.85
2023-03-20T10:44:43.932Z,2.20
2023-03-20T10:47:17.610Z,1.77
2023-03-20T10:49:59.895Z,2.10
2023-03-20T10:52:36.464Z,2.03
2023-03-20T10:55:20.386Z,2.10
2023-03-20T10:58:12.321Z,2.60
2023-03-20T11:00:42.858Z,1.95
2023-03-20T11:03:20.365Z,2.95
2023-03-20T11:06:08.599Z,1.70
2023-03-20T11:08:47.038Z,2.00
2023-03-20T11:11:16.646Z,2.03
2023-03-20T11:13:45.114Z,2.20
2023-03-20T11:16:21.122Z,2.20
2023-03-20T11:18:51.416Z,1.98
2023-03-20T11:21:21.381Z,1.73
2023-03-20T11:23:50.954Z,1.92
2023-03-20T11:26:38.980Z,2.10
2023-03-20T11:29:37.305Z,1.75
2023-03-20T11:32:26.142Z,2.08
2023-03-20T11:34:57.530Z,2.00
2023-03-20T11:37:33.628Z,2.40
2023-03-20T11:40:25.319Z,2.08
2023-03-20T11:43:02.917Z,2.00
2023-03-20T11:45:40.252Z,1.67
2023-03-20T11:48:23.433Z,2.00
2023-03-20T11:53:41.861Z,2.47
2023-03-20T11:56:15.299Z,1.73
2023-03-20T11:59:03.115Z,1.98
2023-03-20T12:01:44.835Z,1.77
2023-03-20T12:04:16.266Z,1.58
2023-03-20T12:06:58.339Z,2.03
2023-03-20T12:09:47.623Z,2.20
2023-03-20T12:12:17.808Z,2.20
2023-03-20T12:15:10.138Z,2.17
2023-03-20T12:17:59.699Z,2.10
2023-03-20T12:20:29.909Z,2.25
2023-03-20T12:23:11.248Z,1.63
2023-03-20T12:25:51.685Z,1.70
2023-03-20T12:28:36.233Z,1.55
2023-03-20T12:31:25.098Z,1.40
2023-03-20T12:33:52.376Z,1.40
2023-03-20T12:36:46.626Z,1.42
2023-03-20T12:39:21.032Z,1.63
2023-03-20T12:42:24.813Z,1.90
2023-03-20T12:47:42.559Z,1.20
2023-03-20T12:50:41.882Z,1.48
2023-03-20T12:53:36.650Z,2.00
2023-03-20T12:56:04.861Z,1.95
2023-03-20T12:59:09.053Z,2.10
2023-03-20T13:01:48.238Z,1.73
2023-03-20T13:04:45.369Z,2.28
2023-03-20T13:07:31.166Z,1.92
2023-03-20T13:10:12.828Z,2.35
2023-03-20T13:13:09.775Z,2.35
2023-03-20T13:15:49.488Z,2.55
2023-03-20T13:18:20.537Z,2.53
2023-03-20T13:20:52.486Z,2.95
2023-03-20T13:23:29.722Z,2.30
2023-03-20T13:26:29.470Z,1.67
2023-03-20T13:29:18.941Z,2.35
2023-03-20T13:32:00.806Z,2.75
2023-03-20T13:34:32.010Z,2.70
2023-03-20T13:37:24.408Z,2.47
2023-03-20T13:40:13.812Z,2.20
2023-03-20T13:43:12.280Z,2.42
2023-03-20T13:45:43.959Z,2.40
2023-03-20T13:48:34.785Z,2.65
2023-03-20T13:51:21.238Z,2.58
2023-03-20T13:54:13.240Z,2.58
2023-03-20T13:56:56.265Z,2.75
2023-03-20T13:59:29.894Z,1.95
2023-03-20T14:02:38.994Z,3.03
2023-03-20T14:05:20.441Z,3.60
2023-03-20T14:07:49.053Z,2.90
2023-03-20T14:10:22.597Z,2.97
2023-03-20T14:13:06.596Z,2.25
2023-03-20T14:15:37.569Z,2.78
2023-03-20T14:18:06.949Z,2.67
2023-03-20T14:20:40.428Z,3.03
2023-03-20T14:23:18.413Z,2.92
2023-03-20T14:25:47.581Z,2.80
2023-03-20T14:28:15.461Z,2.47
2023-03-20T14:31:10.928Z,2.63
2023-03-20T14:33:43.465Z,2.45
2023-03-20T14:36:12.551Z,2.20
2023-03-20T14:38:57.600Z,2.65
2023-03-20T14:41:28.011Z,2.38
2023-03-20T14:44:08.877Z,2.13
2023-03-20T14:46:58.020Z,2.42
2023-03-20T14:49:53.204Z,2.65
2023-03-20T14:52:35.854Z,2.35
2023-03-20T14:55:52.217Z,2.88
2023-03-20T14:58:43.878Z,2.75
2023-03-20T15:01:23.678Z,2.55
2023-03-20T15:04:06.788Z,2.67
2023-03-20T15:06:45.579Z,2.55
2023-03-20T15:09:13.570Z,3.75
2023-03-20T15:11:42.637Z,2.83
2023-03-20T15:14:11.081Z,2.65
2023-03-20T15:16:38.670Z,2.60
2023-03-20T15:19:17.453Z,2.67
2023-03-20T15:21:46.081Z,2.85
2023-03-20T15:24:31.355Z,2.22
2023-03-20T15:27:01.310Z,2.33
2023-03-20T15:29:29.928Z,2.10
2023-03-20T15:32:12.919Z,2.58
2023-03-20T15:34:42.726Z,2.70
2023-03-20T15:37:16.021Z,2.47
2023-03-20T15:39:46.241Z,2.45
2023-03-20T15:42:20.058Z,2.60
2023-03-20T15:44:49.480Z,2.08
2023-03-20T15:47:25.186Z,3.78
2023-03-20T15:49:57.983Z,2.25
2023-03-20T15:52:43.574Z,2.28
2023-03-20T15:55:19.888Z,2.60
2023-03-20T15:57:50.367Z,2.15
2023-03-20T16:00:25.316Z,2.15
2023-03-20T16:02:53.616Z,2.33
2023-03-20T16:05:23.445Z,2.28
2023-03-20T16:07:51.157Z,1.98
2023-03-20T16:10:36.736Z,2.03
2023-03-20T16:13:06.886Z,2.58
2023-03-20T16:15:34.880Z,2.55
2023-03-20T16:18:04.725Z,2.47
2023-03-20T16:20:38.854Z,2.60
2023-03-20T16:23:08.467Z,2.20
2023-03-20T16:25:37.269Z,2.28
2023-03-20T16:28:08.277Z,2.22
2023-03-20T16:30:36.291Z,2.30
2023-03-20T16:33:14.228Z,2.33
2023-03-20T16:35:48.098Z,3.03
2023-03-20T16:38:27.338Z,2.45
2023-03-20T16:40:58.345Z,2.42
2023-03-20T16:43:31.738Z,3.45
2023-03-20T16:46:04.754Z,2.25
2023-03-20T16:51:06.701Z,2.45
2023-03-20T16:53:42.216Z,2.38
2023-03-20T16:56:17.874Z,2.30
2023-03-20T16:58:46.877Z,1.77
